Huntertown, IN (46748)

10:25 PM EDT on September 18, 2014 (GMT -0400)
Cedar Canyons | Change Station
CLOSE
Current Station
Personal Weather Station
Location: Huntertown, IN
Elevation: 848 ft
Nearby Weather Stations

Elev 848 ft 41.24 °N, 85.14 °W | Updated 6 seconds ago

Partly Cloudy
Partly Cloudy
54.9 °F
Feels Like 54.9 °F
N
0.0
Wind Variable Wind from SE
Gusts 1.0 mph

Today
High -- | Low -- °F
--% Chance of Precip.
Yesterday
High -- | Low -- °F
Precip. -- in
7:24 AM 7:44 PM
Waning Crescent, 23% visible
Pressure 30.17 in
Visibility 10.0 miles
Clouds Clear
Dew Point 52 °F
Humidity 90%
Rainfall 0.00 in
Snow Depth Not available.
UV 0 out of 12
Pollen 5.60 out of 12
Ozone Good
PM2.5 Good
Flu Activity Not available.
METAR KGWB 190215Z AUTO 08005KT 10SM CLR 13/10 A3017 RMK AO2

More Conditions Fewer Conditions

Pressure 30.17 in
Visibility 10.0 miles
Clouds Clear
Dew Point 52 °F
Humidity 90%
Rainfall 0.00 in
Snow Depth Not available.
UV 0 out of 12
Pollen 5.60 out of 12
Ozone Good
PM2.5 Good
Flu Activity Not available.
METAR KGWB 190215Z AUTO 08005KT 10SM CLR 13/10 A3017 RMK AO2

More Conditions Fewer Conditions

10-Day Weather Forecast

Almanac

Astronomy

Sep. 18, 2014 Rise Set
Actual Time 7:24 AM EDT 7:44 PM EDT
Civil Twilight 6:56 AM EDT 8:12 PM EDT
Nautical Twilight 6:23 AM EDT 8:44 PM EDT
Astronomical Twilight 5:50 AM EDT 9:17 PM EDT
Moon 2:13 AM EDT (9/18) 4:37 PM EDT (9/18)
Length of Visible Light 13h 15m
Length of Day
12h 20m
Tomorrow will be 2m 43s shorter.
Waning Crescent, 23% of the Moon is Illuminated
Today
Waning Crescent
Sep 24
New
Oct 1
First Quarter
Oct 8
Full
Oct 15
Last Quarter

Today's Extremes

State Highs State Lows

Community

WunderPhotos

Upload Photos

1,754,542 photos uploaded!

Nearby

Air Quality

  Air Quality AQ Index Pollutant
Yesterday Good
PM2.5
Yesterday Good
OZONE
Current Good
PM2.5
Current Good
OZONE
Thursday Moderate
PM2.5
Thursday Good
OZONE
Friday Moderate
PM2.5
Friday Good
OZONE
Saturday Moderate
PM2.5
Saturday Good
OZONE
Sunday Good
OZONE
Sunday Good
PM2.5
Monday Good
OZONE
Monday Good
PM2.5

Snow Depth

Station Depth Elevation
No new snow has been reported.

Earthquake Activity

City Distance Mag. Time & Date
No recent earthquake activity has been reported nearby.
Minimum magnitude displayed is 2.5.

Coastal Water Temperatures

Place Temperature
No Stations Reporting

Nearby Weather Stations